Malaviya Twenty — AUEV — position and weather

sailwx.info

Track history (hours):
 
Tides and Currents Weather Stations Pressure Air Temp Water Temp Dewpoint Dewpoint Depression Visibility Wind Speed Wind Dir Waves Ship Positions

Malaviya Twenty

Last reported at 2015-Jul-28 19:33 UTC. Time now 2015-Jul-28 19:48 UTC.
Position N 52°48' E 001°42'.

Length 72 m; draft 4.1 m.

Type: Ship. MMSI: 419504000.

Date/timePositionNaut miles runAvg speedWind from/ knotsBaromVisibWave heightAir tempDewpointWater temp
2015-Jul-28 19:33N 52°48' E 001°42'1313.1
2015-Jul-28 18:33N 52°59' E 001°31'9812.1
2015-Jul-28 10:27N 54°32' E 000°37'7 7.4
2015-Jul-28 09:26N 54°37' E 000°27'1 0.4
2015-Jul-28 07:33N 54°37' E 000°28'1 0.6
2015-Jul-28 06:16N 54°38' E 000°28'1 1.5
2015-Jul-28 05:30N 54°37' E 000°28'2 1.1
2015-Jul-28 03:26N 54°35' E 000°29'1 0.7
2015-Jul-28 02:22N 54°34' E 000°29'1 0.3
2015-Jul-28 00:33N 54°35' E 000°30'3 3.4
2015-Jul-27 23:32N 54°38' E 000°31'1 0.2
2015-Jul-27 20:33N 54°38' E 000°30'2 1.8
2015-Jul-27 19:15N 54°36' E 000°29'1 1.5
2015-Jul-27 18:33N 54°35' E 000°29'1 1.2
2015-Jul-27 17:33N 54°33' E 000°29'5 2.5
2015-Jul-27 15:31N 54°39' E 000°29'0 0.1
2015-Jul-27 14:33N 54°39' E 000°29'1 1.3
2015-Jul-27 13:33N 54°37' E 000°29'1 1.0
2015-Jul-27 12:33N 54°36' E 000°28'2 1.7
2015-Jul-27 11:33N 54°35' E 000°29'1 1.0
2015-Jul-27 10:33N 54°35' E 000°30'4 1.6
2015-Jul-27 08:25N 54°39' E 000°30'1 1.6
2015-Jul-27 07:32N 54°38' E 000°28'1 0.7
2015-Jul-27 06:23N 54°39' E 000°27'1 0.8
2015-Jul-27 05:30N 54°40' E 000°27'2 2.0
2015-Jul-27 04:28N 54°39' E 000°24'2 2.4
2015-Jul-27 03:33N 54°39' E 000°20'4 0.4
2015-Jul-26 19:33N 54°41' E 000°26'1 0.6
2015-Jul-26 18:18N 54°42' E 000°25'0 0.5
2015-Jul-26 17:33N 54°41' E 000°26'1 0.7
2015-Jul-26 16:16N 54°41' E 000°25'2 2.3
2015-Jul-26 15:30N 54°39' E 000°25'2 2.2
2015-Jul-26 14:33N 54°37' E 000°25'1 1.1
2015-Jul-26 13:33N 54°36' E 000°26'0 0.0
2015-Jul-26 12:33N 54°36' E 000°26'0 0.0
2015-Jul-26 11:33N 54°36' E 000°26'2 1.4
2015-Jul-26 10:21N 54°35' E 000°28'0 0.6
2015-Jul-26 09:33N 54°35' E 000°29'1 1.5
2015-Jul-26 08:33N 54°37' E 000°29'1 1.3
2015-Jul-26 07:33N 54°38' E 000°28'1 1.0
2015-Jul-26 06:33N 54°39' E 000°28'1 0.6
2015-Jul-26 05:33N 54°39' E 000°28'2 2.0
2015-Jul-26 04:27N 54°37' E 000°28'1 1.6
2015-Jul-26 03:33N 54°36' E 000°28'2 2.2
2015-Jul-26 02:33N 54°38' E 000°29'2 2.4
2015-Jul-26 01:33N 54°40' E 000°30'3 2.7
2015-Jul-26 00:33N 54°43' E 000°31'2 2.1
2015-Jul-25 23:33N 54°41' E 000°30'2 2.2
2015-Jul-25 22:33N 54°39' E 000°30'2 2.1
2015-Jul-25 21:33N 54°37' E 000°29'2 1.9
2015-Jul-25 20:33N 54°35' E 000°29'1 0.9
2015-Jul-25 19:31N 54°36' E 000°29'2 2.4
2015-Jul-25 18:33N 54°38' E 000°29'2 2.2
2015-Jul-25 17:33N 54°40' E 000°29'1 0.5
2015-Jul-25 16:28N 54°41' E 000°28'2 2.2
2015-Jul-25 15:31N 54°39' E 000°29'2 1.8
2015-Jul-25 14:23N 54°37' E 000°29'1 1.8
2015-Jul-25 13:33N 54°35' E 000°29'3 3.1
2015-Jul-25 12:31N 54°38' E 000°28'1 0.7
2015-Jul-25 11:33N 54°38' E 000°27'3 2.6
2015-Jul-25 10:33N 54°36' E 000°26'2 1.9
2015-Jul-25 09:27N 54°38' E 000°28'1 1.5
2015-Jul-25 08:29N 54°39' E 000°28'1 1.3
2015-Jul-25 07:33N 54°38' E 000°28'1 1.2
2015-Jul-25 06:33N 54°37' E 000°28'75 4.2
2015-Jul-24 12:33N 53°32' E 001°34'1110.0
2015-Jul-24 11:30N 53°25' E 001°47'1 0.6
2015-Jul-24 10:27N 53°24' E 001°47'0 0.0
2015-Jul-24 08:25N 53°24' E 001°47'0 0.4
2015-Jul-24 07:34N 53°24' E 001°48'0 0.2
2015-Jul-24 06:32N 53°24' E 001°47'1 0.8
2015-Jul-24 05:21N 53°25' E 001°46'2 2.4
2015-Jul-24 04:33N 53°24' E 001°43'4 3.5
2015-Jul-24 03:33N 53°23' E 001°37'4 4.4
2015-Jul-24 02:33N 53°22' E 001°30'6 6.3
2015-Jul-24 01:33N 53°15' E 001°29'8 7.8
2015-Jul-24 00:33N 53°08' E 001°29'7 7.5
2015-Jul-23 23:33N 53°00' E 001°31'7 6.9
2015-Jul-23 22:33N 52°54' E 001°36'2 2.2
2015-Jul-23 21:33N 52°52' E 001°37'5 4.8
2015-Jul-23 20:33N 52°48' E 001°41'9 9.5
2015-Jul-23 19:33N 52°39' E 001°46'4 4.0
2015-Jul-23 18:33N 52°35' E 001°44'0 0.0
2015-Jul-23 17:32N 52°35' E 001°44'0 0.0
2015-Jul-23 16:32N 52°35' E 001°44'0 0.0
2015-Jul-23 15:32N 52°35' E 001°44'0 0.0
2015-Jul-23 14:32N 52°35' E 001°44'0 0.0
2015-Jul-23 13:32N 52°35' E 001°44'0 0.0
2015-Jul-23 12:32N 52°35' E 001°44'0 0.0
2015-Jul-23 11:32N 52°35' E 001°44'0 0.0
2015-Jul-23 10:32N 52°35' E 001°44'0 0.0
2015-Jul-23 09:32N 52°35' E 001°44'0 0.0
2015-Jul-23 08:32N 52°35' E 001°44'0 0.0
2015-Jul-23 07:32N 52°35' E 001°44'0 0.0
2015-Jul-23 06:32N 52°35' E 001°44'0 0.0
2015-Jul-23 05:32N 52°35' E 001°44'0 0.0
2015-Jul-23 04:32N 52°35' E 001°44'0 0.0
2015-Jul-23 03:32N 52°35' E 001°44'0 0.0
2015-Jul-23 02:32N 52°35' E 001°44'0 0.0
2015-Jul-23 01:32N 52°35' E 001°44'0 0.0
2015-Jul-23 00:32N 52°35' E 001°44'0 0.0
2015-Jul-22 23:32N 52°35' E 001°44'0 0.0
2015-Jul-22 22:32N 52°35' E 001°44'0 0.0
2015-Jul-22 21:32N 52°35' E 001°44'0 0.0
2015-Jul-22 20:32N 52°35' E 001°44'0 0.0
2015-Jul-22 19:31N 52°35' E 001°44'1 0.5
2015-Jul-22 18:31N 52°36' E 001°44'0 0.0
2015-Jul-22 17:31N 52°36' E 001°44'0 0.0
2015-Jul-22 16:31N 52°36' E 001°44'0 0.0
2015-Jul-22 15:31N 52°36' E 001°44'0 0.0
2015-Jul-22 14:31N 52°36' E 001°44'0 0.0
2015-Jul-22 13:31N 52°36' E 001°44'0 0.0
2015-Jul-22 12:31N 52°36' E 001°44'0 0.0
2015-Jul-22 11:34N 52°36' E 001°44'0 0.0
2015-Jul-22 10:33N 52°36' E 001°44'0 0.0
2015-Jul-22 09:33N 52°36' E 001°44'0 0.0
2015-Jul-22 08:33N 52°36' E 001°44'0 0.0
2015-Jul-22 07:33N 52°36' E 001°44'0 0.0
2015-Jul-22 06:33N 52°36' E 001°44'0 0.0
2015-Jul-22 05:33N 52°36' E 001°44'0 0.0
2015-Jul-22 04:33N 52°36' E 001°44'0 0.0
2015-Jul-22 03:33N 52°36' E 001°44'0 0.0
2015-Jul-22 02:33N 52°36' E 001°44'0 0.0
2015-Jul-22 01:33N 52°36' E 001°44'0 0.0
2015-Jul-22 00:33N 52°36' E 001°44'0 0.0
2015-Jul-21 23:33N 52°36' E 001°44'0 0.0
2015-Jul-21 22:33N 52°36' E 001°44'0 0.0
2015-Jul-21 21:33N 52°36' E 001°44'0 0.0
2015-Jul-21 20:33N 52°36' E 001°44'0 0.0
2015-Jul-21 19:33N 52°36' E 001°44'0 0.0
2015-Jul-21 18:33N 52°36' E 001°44'0 0.0
2015-Jul-21 17:33N 52°36' E 001°44'0 0.0
2015-Jul-21 16:33N 52°36' E 001°44'0 0.0
2015-Jul-21 15:33N 52°36' E 001°44'0 0.0
2015-Jul-21 14:33N 52°36' E 001°44'0 0.0
2015-Jul-21 13:33N 52°36' E 001°44'1 0.5
2015-Jul-21 12:32N 52°35' E 001°44'0 0.0
2015-Jul-21 11:32N 52°35' E 001°44'0 0.0
2015-Jul-21 10:32N 52°35' E 001°44'0 0.0
2015-Jul-21 09:32N 52°35' E 001°44'0 0.0
2015-Jul-21 08:32N 52°35' E 001°44'0 0.0
2015-Jul-21 07:31N 52°35' E 001°44'0 0.0
2015-Jul-21 06:31N 52°35' E 001°44'0 0.0
2015-Jul-21 05:33N 52°35' E 001°44'1 1.0
2015-Jul-21 04:33N 52°35' E 001°45'1 1.3
2015-Jul-21 03:33N 52°36' E 001°46'6 6.5
2015-Jul-21 02:33N 52°42' E 001°47'4 4.4
2015-Jul-21 01:33N 52°46' E 001°43'4 4.1
2015-Jul-21 00:33N 52°50' E 001°40'5 4.8
2015-Jul-20 23:33N 52°54' E 001°35'6 6.0
2015-Jul-20 22:33N 52°59' E 001°31'7 7.1
2015-Jul-20 21:33N 53°06' E 001°28'46 7.7
2015-Jul-20 15:34N 53°52' E 001°34'7 7.0
2015-Jul-20 14:34N 53°59' E 001°36'8 7.5
2015-Jul-20 13:32N 54°06' E 001°39'9 7.7
2015-Jul-20 12:22N 54°15' E 001°42'50 3.1
2015-Jul-19 20:12N 53°25' E 001°28'6 7.4
2015-Jul-19 19:23N 53°19' E 001°28'7 7.9
2015-Jul-19 18:33N 53°13' E 001°28'9 8.7
2015-Jul-19 17:33N 53°04' E 001°27'1 1.3
2015-Jul-19 16:33N 53°03' E 001°27'5 5.2
2015-Jul-19 15:34N 52°59' E 001°31'1010.1
2015-Jul-19 14:33N 52°50' E 001°39'9 9.5
2015-Jul-19 13:34N 52°41' E 001°46'6 5.7
2015-Jul-19 12:34N 52°36' E 001°44'0 0.0
2015-Jul-19 11:33N 52°36' E 001°44'0 0.0
2015-Jul-19 10:33N 52°36' E 001°44'0 0.0
2015-Jul-19 09:33N 52°36' E 001°44'0 0.0
2015-Jul-19 08:32N 52°36' E 001°44'0 0.0
2015-Jul-19 07:32N 52°36' E 001°44'0 0.0
2015-Jul-19 06:32N 52°36' E 001°44'0 0.0
2015-Jul-19 05:32N 52°36' E 001°44'0 0.0
2015-Jul-19 04:32N 52°36' E 001°44'0 0.0
2015-Jul-19 00:32N 52°36' E 001°44'0 0.0
2015-Jul-18 23:32N 52°36' E 001°44'0 0.0
2015-Jul-18 22:32N 52°36' E 001°44'0 0.0
2015-Jul-18 21:32N 52°36' E 001°44'0 0.0
2015-Jul-18 20:32N 52°36' E 001°44'  
Track history (hours):
 
Tides and Currents Weather Stations Pressure Air Temp Water Temp Dewpoint Dewpoint Depression Visibility Wind Speed Wind Dir Waves Ship Positions

Malaviya Twenty

Last reported at 2015-Jul-28 19:33 UTC. Time now 2015-Jul-28 19:48 UTC.
Position N 52°48' E 001°42'.

Length 72 m; draft 4.1 m.

Type: Ship. MMSI: 419504000.

Date/timePositionNaut miles runAvg speedWind from/ knotsBaromVisibWave heightAir tempDewpointWater temp
2015-Jul-28 19:33N 52°48' E 001°42'1313.1
2015-Jul-28 18:33N 52°59' E 001°31'9812.1
2015-Jul-28 10:27N 54°32' E 000°37'7 7.4
2015-Jul-28 09:26N 54°37' E 000°27'1 0.4
2015-Jul-28 07:33N 54°37' E 000°28'1 0.6
2015-Jul-28 06:16N 54°38' E 000°28'1 1.5
2015-Jul-28 05:30N 54°37' E 000°28'2 1.1
2015-Jul-28 03:26N 54°35' E 000°29'1 0.7
2015-Jul-28 02:22N 54°34' E 000°29'1 0.3
2015-Jul-28 00:33N 54°35' E 000°30'3 3.4
2015-Jul-27 23:32N 54°38' E 000°31'1 0.2
2015-Jul-27 20:33N 54°38' E 000°30'2 1.8
2015-Jul-27 19:15N 54°36' E 000°29'1 1.5
2015-Jul-27 18:33N 54°35' E 000°29'1 1.2
2015-Jul-27 17:33N 54°33' E 000°29'5 2.5
2015-Jul-27 15:31N 54°39' E 000°29'0 0.1
2015-Jul-27 14:33N 54°39' E 000°29'1 1.3
2015-Jul-27 13:33N 54°37' E 000°29'1 1.0
2015-Jul-27 12:33N 54°36' E 000°28'2 1.7
2015-Jul-27 11:33N 54°35' E 000°29'1 1.0
2015-Jul-27 10:33N 54°35' E 000°30'4 1.6
2015-Jul-27 08:25N 54°39' E 000°30'1 1.6
2015-Jul-27 07:32N 54°38' E 000°28'1 0.7
2015-Jul-27 06:23N 54°39' E 000°27'1 0.8
2015-Jul-27 05:30N 54°40' E 000°27'2 2.0
2015-Jul-27 04:28N 54°39' E 000°24'2 2.4
2015-Jul-27 03:33N 54°39' E 000°20'4 0.4
2015-Jul-26 19:33N 54°41' E 000°26'1 0.6
2015-Jul-26 18:18N 54°42' E 000°25'0 0.5
2015-Jul-26 17:33N 54°41' E 000°26'1 0.7
2015-Jul-26 16:16N 54°41' E 000°25'2 2.3
2015-Jul-26 15:30N 54°39' E 000°25'2 2.2
2015-Jul-26 14:33N 54°37' E 000°25'1 1.1
2015-Jul-26 13:33N 54°36' E 000°26'0 0.0
2015-Jul-26 12:33N 54°36' E 000°26'0 0.0
2015-Jul-26 11:33N 54°36' E 000°26'2 1.4
2015-Jul-26 10:21N 54°35' E 000°28'0 0.6
2015-Jul-26 09:33N 54°35' E 000°29'1 1.5
2015-Jul-26 08:33N 54°37' E 000°29'1 1.3
2015-Jul-26 07:33N 54°38' E 000°28'1 1.0
2015-Jul-26 06:33N 54°39' E 000°28'1 0.6
2015-Jul-26 05:33N 54°39' E 000°28'2 2.0
2015-Jul-26 04:27N 54°37' E 000°28'1 1.6
2015-Jul-26 03:33N 54°36' E 000°28'2 2.2
2015-Jul-26 02:33N 54°38' E 000°29'2 2.4
2015-Jul-26 01:33N 54°40' E 000°30'3 2.7
2015-Jul-26 00:33N 54°43' E 000°31'2 2.1
2015-Jul-25 23:33N 54°41' E 000°30'2 2.2
2015-Jul-25 22:33N 54°39' E 000°30'2 2.1
2015-Jul-25 21:33N 54°37' E 000°29'2 1.9
2015-Jul-25 20:33N 54°35' E 000°29'1 0.9
2015-Jul-25 19:31N 54°36' E 000°29'2 2.4
2015-Jul-25 18:33N 54°38' E 000°29'2 2.2
2015-Jul-25 17:33N 54°40' E 000°29'1 0.5
2015-Jul-25 16:28N 54°41' E 000°28'2 2.2
2015-Jul-25 15:31N 54°39' E 000°29'2 1.8
2015-Jul-25 14:23N 54°37' E 000°29'1 1.8
2015-Jul-25 13:33N 54°35' E 000°29'3 3.1
2015-Jul-25 12:31N 54°38' E 000°28'1 0.7
2015-Jul-25 11:33N 54°38' E 000°27'3 2.6
2015-Jul-25 10:33N 54°36' E 000°26'2 1.9
2015-Jul-25 09:27N 54°38' E 000°28'1 1.5
2015-Jul-25 08:29N 54°39' E 000°28'1 1.3
2015-Jul-25 07:33N 54°38' E 000°28'1 1.2
2015-Jul-25 06:33N 54°37' E 000°28'75 4.2
2015-Jul-24 12:33N 53°32' E 001°34'1110.0
2015-Jul-24 11:30N 53°25' E 001°47'1 0.6
2015-Jul-24 10:27N 53°24' E 001°47'0 0.0
2015-Jul-24 08:25N 53°24' E 001°47'0 0.4
2015-Jul-24 07:34N 53°24' E 001°48'0 0.2
2015-Jul-24 06:32N 53°24' E 001°47'1 0.8
2015-Jul-24 05:21N 53°25' E 001°46'2 2.4
2015-Jul-24 04:33N 53°24' E 001°43'4 3.5
2015-Jul-24 03:33N 53°23' E 001°37'4 4.4
2015-Jul-24 02:33N 53°22' E 001°30'6 6.3
2015-Jul-24 01:33N 53°15' E 001°29'8 7.8
2015-Jul-24 00:33N 53°08' E 001°29'7 7.5
2015-Jul-23 23:33N 53°00' E 001°31'7 6.9
2015-Jul-23 22:33N 52°54' E 001°36'2 2.2
2015-Jul-23 21:33N 52°52' E 001°37'5 4.8
2015-Jul-23 20:33N 52°48' E 001°41'9 9.5
2015-Jul-23 19:33N 52°39' E 001°46'4 4.0
2015-Jul-23 18:33N 52°35' E 001°44'0 0.0
2015-Jul-23 17:32N 52°35' E 001°44'0 0.0
2015-Jul-23 16:32N 52°35' E 001°44'0 0.0
2015-Jul-23 15:32N 52°35' E 001°44'0 0.0
2015-Jul-23 14:32N 52°35' E 001°44'0 0.0
2015-Jul-23 13:32N 52°35' E 001°44'0 0.0
2015-Jul-23 12:32N 52°35' E 001°44'0 0.0
2015-Jul-23 11:32N 52°35' E 001°44'0 0.0
2015-Jul-23 10:32N 52°35' E 001°44'0 0.0
2015-Jul-23 09:32N 52°35' E 001°44'0 0.0
2015-Jul-23 08:32N 52°35' E 001°44'0 0.0
2015-Jul-23 07:32N 52°35' E 001°44'0 0.0
2015-Jul-23 06:32N 52°35' E 001°44'0 0.0
2015-Jul-23 05:32N 52°35' E 001°44'0 0.0
2015-Jul-23 04:32N 52°35' E 001°44'0 0.0
2015-Jul-23 03:32N 52°35' E 001°44'0 0.0
2015-Jul-23 02:32N 52°35' E 001°44'0 0.0
2015-Jul-23 01:32N 52°35' E 001°44'0 0.0
2015-Jul-23 00:32N 52°35' E 001°44'0 0.0
2015-Jul-22 23:32N 52°35' E 001°44'0 0.0
2015-Jul-22 22:32N 52°35' E 001°44'0 0.0
2015-Jul-22 21:32N 52°35' E 001°44'0 0.0
2015-Jul-22 20:32N 52°35' E 001°44'0 0.0
2015-Jul-22 19:31N 52°35' E 001°44'1 0.5
2015-Jul-22 18:31N 52°36' E 001°44'0 0.0
2015-Jul-22 17:31N 52°36' E 001°44'0 0.0
2015-Jul-22 16:31N 52°36' E 001°44'0 0.0
2015-Jul-22 15:31N 52°36' E 001°44'0 0.0
2015-Jul-22 14:31N 52°36' E 001°44'0 0.0
2015-Jul-22 13:31N 52°36' E 001°44'0 0.0
2015-Jul-22 12:31N 52°36' E 001°44'0 0.0
2015-Jul-22 11:34N 52°36' E 001°44'0 0.0
2015-Jul-22 10:33N 52°36' E 001°44'0 0.0
2015-Jul-22 09:33N 52°36' E 001°44'0 0.0
2015-Jul-22 08:33N 52°36' E 001°44'0 0.0
2015-Jul-22 07:33N 52°36' E 001°44'0 0.0
2015-Jul-22 06:33N 52°36' E 001°44'0 0.0
2015-Jul-22 05:33N 52°36' E 001°44'0 0.0
2015-Jul-22 04:33N 52°36' E 001°44'0 0.0
2015-Jul-22 03:33N 52°36' E 001°44'0 0.0
2015-Jul-22 02:33N 52°36' E 001°44'0 0.0
2015-Jul-22 01:33N 52°36' E 001°44'0 0.0
2015-Jul-22 00:33N 52°36' E 001°44'0 0.0
2015-Jul-21 23:33N 52°36' E 001°44'0 0.0
2015-Jul-21 22:33N 52°36' E 001°44'0 0.0
2015-Jul-21 21:33N 52°36' E 001°44'0 0.0
2015-Jul-21 20:33N 52°36' E 001°44'0 0.0
2015-Jul-21 19:33N 52°36' E 001°44'0 0.0
2015-Jul-21 18:33N 52°36' E 001°44'0 0.0
2015-Jul-21 17:33N 52°36' E 001°44'0 0.0
2015-Jul-21 16:33N 52°36' E 001°44'0 0.0
2015-Jul-21 15:33N 52°36' E 001°44'0 0.0
2015-Jul-21 14:33N 52°36' E 001°44'0 0.0
2015-Jul-21 13:33N 52°36' E 001°44'1 0.5
2015-Jul-21 12:32N 52°35' E 001°44'0 0.0
2015-Jul-21 11:32N 52°35' E 001°44'0 0.0
2015-Jul-21 10:32N 52°35' E 001°44'0 0.0
2015-Jul-21 09:32N 52°35' E 001°44'0 0.0
2015-Jul-21 08:32N 52°35' E 001°44'0 0.0
2015-Jul-21 07:31N 52°35' E 001°44'0 0.0
2015-Jul-21 06:31N 52°35' E 001°44'0 0.0
2015-Jul-21 05:33N 52°35' E 001°44'1 1.0
2015-Jul-21 04:33N 52°35' E 001°45'1 1.3
2015-Jul-21 03:33N 52°36' E 001°46'6 6.5
2015-Jul-21 02:33N 52°42' E 001°47'4 4.4
2015-Jul-21 01:33N 52°46' E 001°43'4 4.1
2015-Jul-21 00:33N 52°50' E 001°40'5 4.8
2015-Jul-20 23:33N 52°54' E 001°35'6 6.0
2015-Jul-20 22:33N 52°59' E 001°31'7 7.1
2015-Jul-20 21:33N 53°06' E 001°28'46 7.7
2015-Jul-20 15:34N 53°52' E 001°34'7 7.0
2015-Jul-20 14:34N 53°59' E 001°36'8 7.5
2015-Jul-20 13:32N 54°06' E 001°39'9 7.7
2015-Jul-20 12:22N 54°15' E 001°42'50 3.1
2015-Jul-19 20:12N 53°25' E 001°28'6 7.4
2015-Jul-19 19:23N 53°19' E 001°28'7 7.9
2015-Jul-19 18:33N 53°13' E 001°28'9 8.7
2015-Jul-19 17:33N 53°04' E 001°27'1 1.3
2015-Jul-19 16:33N 53°03' E 001°27'5 5.2
2015-Jul-19 15:34N 52°59' E 001°31'1010.1
2015-Jul-19 14:33N 52°50' E 001°39'9 9.5
2015-Jul-19 13:34N 52°41' E 001°46'6 5.7
2015-Jul-19 12:34N 52°36' E 001°44'0 0.0
2015-Jul-19 11:33N 52°36' E 001°44'0 0.0
2015-Jul-19 10:33N 52°36' E 001°44'0 0.0
2015-Jul-19 09:33N 52°36' E 001°44'0 0.0
2015-Jul-19 08:32N 52°36' E 001°44'0 0.0
2015-Jul-19 07:32N 52°36' E 001°44'0 0.0
2015-Jul-19 06:32N 52°36' E 001°44'0 0.0
2015-Jul-19 05:32N 52°36' E 001°44'0 0.0
2015-Jul-19 04:32N 52°36' E 001°44'0 0.0
2015-Jul-19 00:32N 52°36' E 001°44'0 0.0
2015-Jul-18 23:32N 52°36' E 001°44'0 0.0
2015-Jul-18 22:32N 52°36' E 001°44'0 0.0
2015-Jul-18 21:32N 52°36' E 001°44'0 0.0
2015-Jul-18 20:32N 52°36' E 001°44'  

Dump ship's entire track history